createdAt,value
2022-10-29T12:17:16.408Z,100803.47
2022-10-29T12:22:43.426Z,100796.91
2022-10-29T12:53:31.180Z,100741.81
2022-10-29T13:10:58.137Z,100729.78
2022-10-29T13:16:18.780Z,100732.44
2022-10-29T13:21:54.075Z,100729.91
2022-10-29T13:27:02.992Z,100718.88
2022-10-29T13:32:06.291Z,100722.44
2022-10-29T13:37:48.006Z,100742.78
2022-10-29T13:43:01.173Z,100727.59
2022-10-29T13:48:26.635Z,100712.34
2022-10-29T13:53:39.882Z,100713.13
2022-10-29T13:58:52.823Z,100725.81
2022-10-29T14:04:31.717Z,100724.03
2022-10-29T14:09:51.760Z,100724.84
2022-10-29T14:15:03.493Z,100713.81
2022-10-29T14:20:06.272Z,100724.00
2022-10-29T14:25:36.573Z,100729.91
2022-10-29T14:30:40.751Z,100725.72
2022-10-29T14:35:43.599Z,100714.69
2022-10-29T14:41:33.505Z,100712.16
2022-10-29T15:06:25.413Z,100696.63
2022-10-29T15:11:57.580Z,100706.81
2022-10-29T15:17:00.696Z,100702.56
2022-10-29T15:22:14.945Z,100705.09
2022-10-29T15:27:16.828Z,100714.34
2022-10-29T15:32:19.027Z,100703.25
2022-10-29T15:37:37.164Z,100715.22
2022-10-29T15:42:41.762Z,100704.22
2022-10-29T15:48:03.523Z,100708.47
2022-10-29T15:53:10.037Z,100713.38
2022-10-29T15:58:15.090Z,100706.56
2022-10-29T16:03:22.459Z,100695.63
2022-10-29T16:08:36.450Z,100708.25
2022-10-29T16:13:38.345Z,100705.75
2022-10-29T16:18:40.129Z,100700.69
2022-10-29T16:23:44.425Z,100716.72
2022-10-29T16:28:46.781Z,100705.69
2022-10-29T16:33:50.263Z,100709.09
2022-10-29T16:38:52.269Z,100704.78
2022-10-29T16:43:54.219Z,100705.75
2022-10-29T16:48:57.477Z,100698.00
2022-10-29T16:53:59.284Z,100706.50
2022-10-29T16:59:04.108Z,100711.50
2022-10-29T17:04:09.387Z,100708.03
2022-10-29T17:09:13.636Z,100703.00
2022-10-29T17:14:49.819Z,100714.84
2022-10-29T17:19:57.421Z,100710.63
2022-10-29T17:25:25.737Z,100708.78
2022-10-29T17:30:32.508Z,100721.41
2022-10-29T17:35:34.342Z,100720.69
2022-10-29T17:41:02.178Z,100714.78
2022-10-29T17:46:08.937Z,100711.38
2022-10-29T17:51:18.707Z,100712.13
2022-10-29T17:56:38.559Z,100713.78
2022-10-29T18:02:10.823Z,100709.66
2022-10-29T18:07:15.391Z,100694.38
2022-10-29T18:12:17.435Z,100689.34
2022-10-29T18:17:23.887Z,100709.66
2022-10-29T18:22:31.681Z,100708.00
2022-10-29T18:27:33.412Z,100698.63
2022-10-29T18:32:35.263Z,100707.19
2022-10-29T18:37:37.258Z,100696.97
2022-10-29T18:42:39.138Z,100692.81
2022-10-29T18:47:41.037Z,100687.66
2022-10-29T18:52:43.101Z,100688.50
2022-10-29T18:57:47.851Z,100673.31
2022-10-29T19:02:49.768Z,100686.03
2022-10-29T19:07:53.009Z,100697.00
2022-10-29T19:12:54.774Z,100683.44
2022-10-29T19:17:56.918Z,100676.53
2022-10-29T19:22:59.421Z,100664.81
2022-10-29T19:28:03.842Z,100670.66
2022-10-29T19:33:08.221Z,100669.88
2022-10-29T19:38:14.341Z,100680.91
2022-10-29T19:43:16.360Z,100657.22
2022-10-29T19:48:26.015Z,100675.81
2022-10-29T19:53:48.534Z,100685.06
2022-10-29T19:59:02.710Z,100668.00
2022-10-29T20:04:12.382Z,100675.72
2022-10-29T20:10:06.482Z,100653.66
2022-10-29T20:21:18.652Z,100673.94
2022-10-29T20:32:48.983Z,100684.06
2022-10-29T20:38:03.459Z,100671.44
2022-10-29T20:49:51.600Z,100679.00
2022-10-29T20:55:01.549Z,100673.13
2022-10-29T21:00:09.878Z,100663.81
2022-10-29T21:05:11.697Z,100669.63
2022-10-29T21:10:13.857Z,100670.41
2022-10-29T21:15:15.820Z,100655.25
2022-10-29T21:20:20.116Z,100654.44
2022-10-29T21:25:35.382Z,100660.44
2022-10-29T21:30:37.463Z,100652.06
2022-10-29T21:35:47.674Z,100645.94
2022-10-29T21:41:10.628Z,100662.78
2022-10-29T21:46:28.956Z,100639.16
2022-10-29T21:51:44.488Z,100629.06
2022-10-29T21:56:46.348Z,100637.63
2022-10-29T22:01:48.440Z,100628.25
2022-10-29T22:06:50.298Z,100635.91
2022-10-29T22:11:52.235Z,100627.47
2022-10-29T22:16:56.835Z,100621.53
2022-10-29T22:21:58.675Z,100623.25
2022-10-29T22:27:00.631Z,100616.47
2022-10-29T22:32:04.158Z,100625.75
2022-10-29T22:37:06.162Z,100620.53
2022-10-29T22:42:35.118Z,100623.00
2022-10-29T22:48:15.603Z,100639.91
2022-10-29T22:53:17.547Z,100628.88
2022-10-29T22:58:19.818Z,100635.59
2022-10-29T23:03:30.539Z,100643.34
2022-10-29T23:08:50.878Z,100620.25
2022-10-29T23:13:58.364Z,100614.31
2022-10-29T23:19:02.798Z,100639.72
2022-10-29T23:24:09.907Z,100636.28
2022-10-29T23:29:33.753Z,100652.97
2022-10-29T23:34:40.951Z,100635.34
2022-10-29T23:39:45.364Z,100648.22
2022-10-29T23:44:56.232Z,100643.22
2022-10-29T23:50:03.039Z,100622.84
2022-10-29T23:55:28.223Z,100628.75
